createdAt,value
2023-05-14T00:00:05.948Z,16.93
2023-05-14T00:02:32.539Z,16.88
2023-05-14T00:04:59.086Z,16.91
2023-05-14T00:07:25.529Z,16.93
2023-05-14T00:09:52.092Z,16.92
2023-05-14T00:12:18.586Z,16.87
2023-05-14T00:14:45.065Z,16.75
2023-05-14T00:17:11.574Z,16.74
2023-05-14T00:19:38.063Z,16.77
2023-05-14T00:22:04.594Z,16.77
2023-05-14T00:24:31.097Z,16.80
2023-05-14T00:26:57.544Z,16.82
2023-05-14T00:29:24.056Z,16.79
2023-05-14T00:31:50.631Z,16.86
2023-05-14T00:34:17.148Z,16.84
2023-05-14T00:36:43.667Z,16.89
2023-05-14T00:39:10.169Z,16.88
2023-05-14T00:41:36.622Z,16.87
2023-05-14T00:44:03.210Z,16.88
2023-05-14T00:46:29.817Z,16.88
2023-05-14T00:48:58.243Z,16.90
2023-05-14T00:51:24.833Z,16.99
2023-05-14T00:53:51.872Z,16.93
2023-05-14T00:56:19.378Z,16.99
2023-05-14T00:58:45.843Z,16.95
2023-05-14T01:01:12.455Z,16.96
2023-05-14T01:03:39.249Z,16.97
2023-05-14T01:06:11.580Z,16.99
2023-05-14T01:08:43.974Z,16.93
2023-05-14T01:11:19.049Z,16.95
2023-05-14T01:14:18.917Z,16.91
2023-05-14T01:16:45.992Z,16.91
2023-05-14T01:19:26.811Z,16.84
2023-05-14T01:21:53.301Z,16.79
2023-05-14T01:24:19.800Z,16.76
2023-05-14T01:26:46.331Z,16.73
2023-05-14T01:29:23.714Z,16.76
2023-05-14T01:31:55.294Z,16.60
2023-05-14T01:34:26.080Z,16.61
2023-05-14T01:36:53.620Z,16.67
2023-05-14T01:39:22.107Z,16.65
2023-05-14T01:41:49.607Z,16.72
2023-05-14T01:44:17.328Z,16.70
2023-05-14T01:46:43.853Z,16.68
2023-05-14T01:49:10.370Z,16.53
2023-05-14T01:51:36.875Z,16.56
2023-05-14T01:54:03.659Z,16.52
2023-05-14T01:56:30.238Z,16.51
2023-05-14T01:58:56.716Z,16.52
2023-05-14T02:01:23.224Z,16.55
2023-05-14T02:03:50.922Z,16.57
2023-05-14T02:06:17.487Z,16.59
2023-05-14T02:08:43.935Z,16.56
2023-05-14T02:11:10.500Z,16.53
2023-05-14T02:13:36.967Z,16.44
2023-05-14T02:16:03.712Z,16.36
2023-05-14T02:18:30.266Z,16.27
2023-05-14T02:20:56.753Z,16.16
2023-05-14T02:23:34.142Z,16.13
2023-05-14T02:26:07.295Z,16.02
2023-05-14T02:28:33.769Z,15.76
2023-05-14T02:31:00.274Z,15.65
2023-05-14T02:33:27.598Z,15.73
2023-05-14T02:35:54.351Z,15.79
2023-05-14T02:38:20.818Z,15.60
2023-05-14T02:40:47.321Z,15.38
2023-05-14T02:43:13.788Z,15.61
2023-05-14T02:45:40.249Z,15.61
2023-05-14T02:48:06.766Z,15.66
2023-05-14T02:50:33.303Z,15.88
2023-05-14T02:52:59.784Z,15.74
2023-05-14T02:55:26.284Z,15.87
2023-05-14T02:57:52.748Z,15.97
2023-05-14T03:00:19.669Z,15.74
2023-05-14T03:02:46.383Z,15.48
2023-05-14T03:05:13.361Z,15.64
2023-05-14T03:07:39.858Z,15.82
2023-05-14T03:10:06.824Z,15.83
2023-05-14T03:12:33.316Z,15.94
2023-05-14T03:14:59.798Z,15.86
2023-05-14T03:17:26.317Z,16.00
2023-05-14T03:19:52.785Z,16.17
2023-05-14T03:22:19.289Z,16.22
2023-05-14T03:24:45.766Z,16.17
2023-05-14T03:27:12.287Z,16.02
2023-05-14T03:29:38.754Z,16.09
2023-05-14T03:32:05.772Z,15.44
2023-05-14T03:34:32.637Z,15.37
2023-05-14T03:36:59.182Z,15.03
2023-05-14T03:39:25.644Z,14.76
2023-05-14T03:41:52.266Z,14.59
2023-05-14T03:44:18.745Z,14.51
2023-05-14T03:46:45.250Z,14.49
2023-05-14T03:49:11.752Z,14.60
2023-05-14T03:51:38.240Z,14.71
2023-05-14T03:54:04.788Z,14.72
2023-05-14T03:56:31.250Z,14.82
2023-05-14T03:58:57.722Z,14.84
2023-05-14T04:01:24.371Z,14.63
2023-05-14T04:03:51.021Z,15.01
2023-05-14T04:06:17.660Z,15.12
2023-05-14T04:08:44.162Z,14.81
2023-05-14T04:11:10.733Z,14.97
2023-05-14T04:13:37.286Z,14.95
2023-05-14T04:16:03.920Z,15.09
2023-05-14T04:18:30.447Z,14.98
2023-05-14T04:20:56.939Z,14.94
2023-05-14T04:23:23.443Z,15.23
2023-05-14T04:25:49.908Z,15.16
2023-05-14T04:28:16.391Z,14.95
2023-05-14T04:30:45.216Z,14.61
2023-05-14T04:33:11.697Z,14.56
2023-05-14T04:35:38.160Z,13.82
2023-05-14T04:38:04.678Z,13.92
2023-05-14T04:40:31.242Z,13.16
2023-05-14T04:42:57.793Z,13.00
2023-05-14T04:45:24.884Z,12.84
2023-05-14T04:47:51.471Z,12.62
2023-05-14T04:50:18.047Z,12.65
2023-05-14T04:52:44.528Z,12.47
2023-05-14T04:55:10.996Z,12.59
2023-05-14T04:57:37.471Z,12.81
2023-05-14T05:00:04.316Z,13.14
2023-05-14T05:02:30.814Z,13.34
2023-05-14T05:04:57.335Z,13.63
2023-05-14T05:07:23.809Z,13.98
2023-05-14T05:09:50.278Z,13.84
2023-05-14T05:12:16.737Z,14.14
2023-05-14T05:14:43.217Z,14.43
2023-05-14T05:17:09.708Z,14.57
2023-05-14T05:19:43.737Z,14.72
2023-05-14T05:22:11.284Z,15.02
2023-05-14T05:24:37.821Z,15.21
2023-05-14T05:27:04.540Z,15.29
2023-05-14T05:29:31.037Z,15.69
2023-05-14T05:31:57.722Z,15.29
2023-05-14T05:34:24.268Z,15.37
2023-05-14T05:36:50.827Z,15.46
2023-05-14T05:39:17.299Z,15.46
2023-05-14T05:41:43.819Z,15.34
2023-05-14T05:44:10.336Z,15.65
2023-05-14T05:46:36.903Z,15.33
2023-05-14T05:49:03.391Z,15.35
2023-05-14T05:51:30.326Z,15.54
2023-05-14T05:53:56.813Z,15.95
2023-05-14T05:56:23.320Z,15.90
2023-05-14T05:58:49.842Z,16.16
2023-05-14T06:01:36.826Z,16.36
2023-05-14T06:04:03.355Z,16.38
2023-05-14T06:06:29.849Z,16.46
2023-05-14T06:08:56.370Z,16.47
2023-05-14T06:11:22.848Z,16.66
2023-05-14T06:13:49.334Z,16.61
2023-05-14T06:16:20.539Z,16.36
2023-05-14T06:18:53.807Z,15.94
2023-05-14T06:21:20.305Z,15.98
2023-05-14T06:23:46.992Z,16.05
2023-05-14T06:26:13.493Z,16.20
2023-05-14T06:28:40.015Z,15.62
2023-05-14T06:31:06.521Z,15.49
2023-05-14T06:33:33.051Z,15.53
2023-05-14T06:36:00.934Z,16.01
2023-05-14T06:38:27.508Z,16.13
2023-05-14T06:40:54.044Z,16.22
2023-05-14T06:43:20.881Z,16.22
2023-05-14T06:45:51.763Z,16.38
2023-05-14T06:48:19.191Z,16.44
2023-05-14T06:50:49.399Z,16.56
2023-05-14T06:53:16.275Z,16.67
2023-05-14T06:55:42.913Z,16.45
2023-05-14T06:58:09.799Z,16.77
2023-05-14T07:00:36.353Z,16.91
2023-05-14T07:03:02.920Z,16.88
2023-05-14T07:05:29.455Z,17.02
2023-05-14T07:07:56.059Z,17.14
2023-05-14T07:10:23.039Z,17.29
2023-05-14T07:12:49.782Z,17.39
2023-05-14T07:15:16.521Z,17.39
2023-05-14T07:17:43.095Z,16.50
2023-05-14T07:20:10.099Z,16.26
2023-05-14T07:22:36.626Z,16.73
2023-05-14T07:25:03.267Z,16.83
2023-05-14T07:27:29.808Z,16.97
2023-05-14T07:29:56.343Z,17.01
2023-05-14T07:32:22.801Z,17.24
2023-05-14T07:34:49.426Z,17.39
2023-05-14T07:37:15.894Z,16.98
2023-05-14T07:39:42.404Z,17.19
2023-05-14T07:42:08.907Z,17.34
2023-05-14T07:44:35.408Z,17.49
2023-05-14T07:47:01.963Z,17.70
2023-05-14T07:49:28.648Z,17.39
2023-05-14T07:51:55.153Z,17.79
2023-05-14T07:54:21.635Z,18.03
2023-05-14T07:56:48.138Z,17.97
2023-05-14T07:59:14.625Z,17.62
2023-05-14T08:01:41.188Z,17.97
2023-05-14T08:04:08.095Z,17.99
2023-05-14T08:06:34.690Z,17.93
2023-05-14T08:09:01.219Z,18.22
2023-05-14T08:11:27.738Z,17.94
2023-05-14T08:13:54.280Z,18.27
2023-05-14T08:16:20.828Z,18.26
2023-05-14T08:18:48.346Z,18.40
2023-05-14T08:21:14.885Z,18.67
2023-05-14T08:23:41.370Z,18.92
2023-05-14T08:26:07.869Z,18.93
2023-05-14T08:28:34.526Z,18.65
2023-05-14T08:31:01.061Z,18.53
2023-05-14T08:33:27.618Z,18.80
2023-05-14T08:35:54.322Z,18.88
2023-05-14T08:38:20.860Z,19.06
2023-05-14T08:40:49.041Z,19.16
2023-05-14T08:43:24.539Z,19.25
2023-05-14T08:45:58.508Z,19.19
2023-05-14T08:48:29.048Z,19.19
2023-05-14T08:50:55.989Z,19.25
2023-05-14T08:53:22.692Z,19.46
2023-05-14T08:55:51.346Z,19.80
2023-05-14T08:58:17.952Z,20.09
2023-05-14T09:00:44.528Z,19.98
2023-05-14T09:03:12.162Z,19.95
2023-05-14T09:05:39.366Z,19.51
2023-05-14T09:08:05.958Z,19.66
2023-05-14T09:10:32.454Z,19.60
2023-05-14T09:12:58.990Z,19.85
2023-05-14T09:15:28.926Z,20.11
2023-05-14T09:17:56.741Z,20.37
2023-05-14T09:20:24.846Z,20.66
2023-05-14T09:22:54.622Z,20.61
2023-05-14T09:25:27.109Z,20.03
2023-05-14T09:27:53.793Z,19.60
2023-05-14T09:30:20.299Z,19.63
2023-05-14T09:32:46.917Z,19.51
2023-05-14T09:35:41.455Z,19.64
2023-05-14T09:38:07.939Z,20.01
2023-05-14T09:40:34.445Z,19.90
2023-05-14T09:43:01.578Z,20.10
2023-05-14T09:45:29.348Z,20.34
2023-05-14T09:47:56.123Z,20.29
2023-05-14T09:50:22.958Z,20.45
2023-05-14T09:52:49.766Z,19.94
2023-05-14T09:55:16.398Z,19.99
2023-05-14T09:57:42.955Z,19.50
2023-05-14T10:00:10.157Z,19.39
2023-05-14T10:02:38.698Z,19.46
2023-05-14T10:05:07.610Z,19.51
2023-05-14T10:07:43.299Z,19.40
2023-05-14T10:10:15.723Z,19.42
2023-05-14T10:12:47.770Z,19.58
2023-05-14T10:15:22.938Z,19.49
2023-05-14T10:17:56.722Z,19.48
2023-05-14T10:20:26.790Z,19.26
2023-05-14T10:22:53.954Z,19.47
2023-05-14T10:25:22.224Z,19.49
2023-05-14T10:27:49.099Z,19.23
2023-05-14T10:30:15.607Z,19.71
2023-05-14T10:32:42.184Z,19.91
2023-05-14T10:35:19.725Z,19.95
2023-05-14T10:37:46.510Z,20.06
2023-05-14T10:40:13.826Z,20.13
2023-05-14T10:42:40.769Z,20.40
2023-05-14T10:45:09.128Z,20.52
2023-05-14T10:47:37.964Z,20.50
2023-05-14T10:50:11.339Z,20.48
2023-05-14T10:52:38.363Z,20.68
2023-05-14T10:55:06.823Z,20.68
2023-05-14T10:57:36.591Z,20.69
2023-05-14T11:00:03.616Z,20.45
2023-05-14T11:02:36.317Z,20.48
2023-05-14T11:05:11.440Z,20.47
2023-05-14T11:07:38.989Z,20.43
2023-05-14T11:10:08.127Z,19.87
2023-05-14T11:12:37.056Z,19.86
2023-05-14T11:15:08.810Z,20.18
2023-05-14T11:17:37.192Z,20.55
2023-05-14T11:20:04.870Z,20.63
2023-05-14T11:22:31.440Z,20.38
2023-05-14T11:24:57.955Z,19.82
2023-05-14T11:27:24.583Z,19.42
2023-05-14T11:29:51.117Z,19.87
2023-05-14T11:32:19.901Z,19.77
2023-05-14T11:34:47.033Z,20.15
2023-05-14T11:37:15.428Z,20.35
2023-05-14T11:39:54.237Z,19.77
2023-05-14T11:42:27.541Z,19.87
2023-05-14T11:44:57.824Z,19.76
2023-05-14T11:47:24.504Z,19.73
2023-05-14T11:49:51.136Z,19.94
2023-05-14T11:52:18.091Z,19.06
2023-05-14T11:54:45.817Z,19.06
2023-05-14T11:57:17.111Z,19.46
2023-05-14T11:59:48.495Z,19.97
2023-05-14T12:02:22.845Z,19.92
2023-05-14T12:04:50.989Z,20.18
2023-05-14T12:07:18.044Z,20.58
2023-05-14T12:09:51.452Z,20.52
2023-05-14T12:12:54.293Z,21.00
2023-05-14T12:15:27.006Z,20.70
2023-05-14T12:20:35.034Z,20.54
2023-05-14T12:23:01.853Z,20.12
2023-05-14T12:25:38.138Z,20.33
2023-05-14T12:28:23.214Z,20.34
2023-05-14T12:30:56.854Z,20.41
2023-05-14T12:33:25.009Z,20.32
2023-05-14T12:35:51.552Z,20.19
2023-05-14T12:38:18.127Z,20.08
2023-05-14T12:40:49.478Z,20.21
2023-05-14T12:43:16.252Z,20.01
2023-05-14T12:45:42.810Z,20.04
2023-05-14T12:48:09.550Z,20.11
2023-05-14T12:50:36.112Z,20.44
2023-05-14T12:53:02.709Z,20.36
2023-05-14T12:55:31.738Z,20.46
2023-05-14T12:58:00.516Z,20.53
2023-05-14T13:00:27.083Z,20.43
2023-05-14T13:02:53.706Z,20.36
2023-05-14T13:05:20.343Z,20.54
2023-05-14T13:07:47.035Z,20.65
2023-05-14T13:10:13.572Z,20.72
2023-05-14T13:12:40.133Z,21.31
2023-05-14T13:15:07.115Z,21.76
2023-05-14T13:17:33.758Z,22.38
2023-05-14T13:20:00.287Z,23.14
2023-05-14T13:22:26.771Z,23.62
2023-05-14T13:24:53.455Z,23.90
2023-05-14T13:27:20.026Z,23.56
2023-05-14T13:29:46.623Z,23.85
2023-05-14T13:32:13.387Z,23.66
2023-05-14T13:34:40.057Z,23.50
2023-05-14T13:37:06.843Z,22.45
2023-05-14T13:39:35.366Z,22.21
2023-05-14T13:42:02.009Z,22.50
2023-05-14T13:44:28.650Z,22.69
2023-05-14T13:46:55.270Z,22.81
2023-05-14T13:49:22.028Z,22.73
2023-05-14T13:51:48.607Z,23.18
2023-05-14T13:54:15.193Z,23.14
2023-05-14T13:56:41.762Z,23.40
2023-05-14T13:59:08.349Z,23.42
2023-05-14T14:01:34.905Z,23.03
2023-05-14T14:04:01.468Z,23.13
2023-05-14T14:06:28.026Z,23.22
2023-05-14T14:08:54.599Z,23.33
2023-05-14T14:11:21.384Z,23.40
2023-05-14T14:13:48.017Z,23.51
2023-05-14T14:16:14.990Z,23.48
2023-05-14T14:18:41.591Z,23.46
2023-05-14T14:21:08.226Z,23.35
2023-05-14T14:23:34.769Z,23.38
2023-05-14T14:26:01.242Z,23.28
2023-05-14T14:28:27.771Z,23.07
2023-05-14T14:30:54.252Z,23.13
2023-05-14T14:33:20.710Z,23.28
2023-05-14T14:35:47.178Z,23.28
2023-05-14T14:38:13.832Z,23.19
2023-05-14T14:40:40.539Z,23.14
2023-05-14T14:43:07.174Z,22.86
2023-05-14T14:45:33.705Z,23.41
2023-05-14T14:48:22.049Z,24.03
2023-05-14T14:50:48.555Z,24.13
2023-05-14T14:53:15.016Z,24.22
2023-05-14T14:55:41.505Z,23.45
2023-05-14T14:58:08.028Z,23.72
2023-05-14T15:00:34.808Z,23.24
2023-05-14T15:03:01.722Z,24.52
2023-05-14T15:05:28.534Z,25.31
2023-05-14T15:07:55.138Z,26.02
2023-05-14T15:10:21.808Z,25.79
2023-05-14T15:12:48.675Z,26.17
2023-05-14T15:15:17.881Z,26.74
2023-05-14T15:17:44.431Z,26.47
2023-05-14T15:20:11.582Z,25.08
2023-05-14T15:22:38.373Z,24.32
2023-05-14T15:25:05.290Z,23.91
2023-05-14T15:27:31.841Z,23.78
2023-05-14T15:29:58.345Z,23.45
2023-05-14T15:32:24.894Z,23.52
2023-05-14T15:34:51.432Z,24.02
2023-05-14T15:37:18.041Z,24.17
2023-05-14T15:39:44.601Z,23.60
2023-05-14T15:42:11.128Z,22.81
2023-05-14T15:44:38.869Z,22.04
2023-05-14T15:47:05.938Z,22.14
2023-05-14T15:49:32.462Z,21.62
2023-05-14T15:51:59.660Z,20.96
2023-05-14T15:54:26.742Z,21.52
2023-05-14T15:56:53.586Z,20.96
2023-05-14T15:59:20.131Z,20.23
2023-05-14T16:01:46.704Z,19.80
2023-05-14T16:04:13.274Z,18.14
2023-05-14T16:06:39.801Z,18.10
2023-05-14T16:09:06.278Z,18.47
2023-05-14T16:11:32.797Z,18.36
2023-05-14T16:13:59.306Z,19.27
2023-05-14T16:16:25.936Z,20.13
2023-05-14T16:18:52.498Z,20.68
2023-05-14T16:21:19.060Z,21.21
2023-05-14T16:23:45.566Z,22.25
2023-05-14T16:26:12.147Z,22.56
2023-05-14T16:28:38.644Z,23.22
2023-05-14T16:31:05.126Z,23.98
2023-05-14T16:33:31.725Z,23.85
2023-05-14T16:35:58.262Z,23.80
2023-05-14T16:38:24.779Z,23.64
2023-05-14T16:40:51.302Z,22.21
2023-05-14T16:43:17.780Z,21.95
2023-05-14T16:45:44.343Z,21.67
2023-05-14T16:48:10.876Z,21.83
2023-05-14T16:50:37.517Z,22.44
2023-05-14T16:53:03.971Z,23.14
2023-05-14T16:55:30.801Z,23.29
2023-05-14T16:57:57.327Z,23.71
2023-05-14T17:00:23.914Z,23.51
2023-05-14T17:02:50.469Z,23.41
2023-05-14T17:05:17.115Z,22.97
2023-05-14T17:07:43.656Z,23.19
2023-05-14T17:10:10.396Z,23.02
2023-05-14T17:12:36.887Z,22.71
2023-05-14T17:15:05.583Z,22.69
2023-05-14T17:17:32.496Z,22.80
2023-05-14T17:19:59.624Z,22.95
2023-05-14T17:22:26.182Z,23.37
2023-05-14T17:24:52.663Z,23.86
2023-05-14T17:27:19.161Z,24.15
2023-05-14T17:29:45.667Z,23.99
2023-05-14T17:32:12.211Z,24.18
2023-05-14T17:34:38.746Z,23.83
2023-05-14T17:37:05.287Z,23.69
2023-05-14T17:39:31.783Z,23.28
2023-05-14T17:41:58.284Z,23.22
2023-05-14T17:44:24.745Z,23.06
2023-05-14T17:46:51.308Z,23.04
2023-05-14T17:49:17.832Z,22.64
2023-05-14T17:51:44.306Z,22.49
2023-05-14T17:54:10.853Z,22.14
2023-05-14T17:56:37.716Z,21.60
2023-05-14T17:59:04.288Z,21.40
2023-05-14T18:01:30.924Z,20.82
2023-05-14T18:03:57.676Z,20.86
2023-05-14T18:06:24.356Z,20.82
2023-05-14T18:08:50.996Z,20.86
2023-05-14T18:11:17.560Z,20.98
2023-05-14T18:13:44.068Z,20.61
2023-05-14T18:16:10.642Z,20.67
2023-05-14T18:18:37.194Z,20.81
2023-05-14T18:21:03.832Z,20.85
2023-05-14T18:23:30.392Z,20.79
2023-05-14T18:25:56.885Z,20.78
2023-05-14T18:28:23.439Z,20.37
2023-05-14T18:30:49.994Z,20.18
2023-05-14T18:33:16.555Z,20.10
2023-05-14T18:35:43.085Z,19.84
2023-05-14T18:38:09.728Z,19.57
2023-05-14T18:40:36.375Z,19.22
2023-05-14T18:43:02.932Z,19.03
2023-05-14T18:45:29.524Z,18.70
2023-05-14T18:47:56.258Z,18.23
2023-05-14T18:50:22.776Z,17.94
2023-05-14T18:52:49.235Z,17.66
2023-05-14T18:55:15.783Z,17.40
2023-05-14T18:57:42.281Z,17.51
2023-05-14T19:00:09.670Z,17.50
2023-05-14T19:02:36.249Z,17.21
2023-05-14T19:05:02.809Z,17.05
2023-05-14T19:07:30.697Z,16.84
2023-05-14T19:09:57.171Z,16.26
2023-05-14T19:12:23.681Z,16.30
2023-05-14T19:14:50.225Z,16.21
2023-05-14T19:20:04.889Z,16.11
2023-05-14T19:21:34.217Z,16.43
2023-05-14T19:22:32.061Z,15.69
2023-05-14T19:24:58.572Z,15.79
2023-05-14T19:27:25.103Z,15.81
2023-05-14T19:29:51.660Z,15.43
2023-05-14T19:32:18.180Z,15.15
2023-05-14T19:34:44.792Z,15.38
2023-05-14T19:37:11.280Z,15.47
2023-05-14T19:39:37.728Z,15.63
2023-05-14T19:42:04.495Z,15.80
2023-05-14T19:44:30.986Z,15.57
2023-05-14T19:46:57.710Z,15.61
2023-05-14T19:49:24.351Z,15.82
2023-05-14T19:51:51.106Z,15.52
2023-05-14T19:54:17.804Z,15.63
2023-05-14T19:56:44.492Z,15.58
2023-05-14T19:59:11.001Z,15.46
2023-05-14T20:01:37.771Z,15.60
2023-05-14T20:04:04.463Z,15.77
2023-05-14T20:06:31.010Z,15.76
2023-05-14T20:08:57.796Z,15.85
2023-05-14T20:11:24.347Z,15.88
2023-05-14T20:13:50.891Z,15.90
2023-05-14T20:16:17.594Z,16.04
2023-05-14T20:18:44.912Z,15.97
2023-05-14T20:21:11.557Z,16.13
2023-05-14T20:23:38.087Z,16.21
2023-05-14T20:26:04.622Z,16.40
2023-05-14T20:28:31.238Z,16.42
2023-05-14T20:30:57.781Z,16.26
2023-05-14T20:33:24.904Z,16.11
2023-05-14T20:35:51.391Z,15.98
2023-05-14T20:38:18.032Z,15.85
2023-05-14T20:40:44.728Z,15.40
2023-05-14T20:43:11.239Z,15.33
2023-05-14T20:45:37.842Z,15.44
2023-05-14T20:48:04.940Z,15.46
2023-05-14T20:50:31.484Z,15.45
2023-05-14T20:52:57.948Z,15.79
2023-05-14T20:55:24.767Z,15.84
2023-05-14T20:57:51.398Z,15.99
2023-05-14T21:00:18.312Z,16.22
2023-05-14T21:02:45.016Z,16.45
2023-05-14T21:05:12.002Z,16.54
2023-05-14T21:07:38.516Z,16.61
2023-05-14T21:10:05.522Z,16.72
2023-05-14T21:12:32.018Z,16.62
2023-05-14T21:14:58.610Z,16.48
2023-05-14T21:17:25.150Z,16.23
2023-05-14T21:19:51.679Z,16.27
2023-05-14T21:22:18.172Z,16.15
2023-05-14T21:24:48.699Z,15.96
2023-05-14T21:27:15.353Z,15.99
2023-05-14T21:29:41.839Z,16.08
2023-05-14T21:32:08.819Z,16.08
2023-05-14T21:34:35.397Z,16.15
2023-05-14T21:37:02.391Z,16.12
2023-05-14T21:39:29.242Z,15.82
2023-05-14T21:41:55.782Z,15.82
2023-05-14T21:44:22.297Z,15.79
2023-05-14T21:46:49.308Z,15.89
2023-05-14T21:49:15.827Z,14.15
2023-05-14T21:51:42.444Z,14.07
2023-05-14T21:54:08.906Z,14.25
2023-05-14T21:56:36.051Z,14.60
2023-05-14T21:59:02.590Z,14.77
2023-05-14T22:01:29.177Z,14.65
2023-05-14T22:03:57.623Z,14.23
2023-05-14T22:06:24.583Z,14.43
2023-05-14T22:11:58.367Z,14.71
2023-05-14T22:14:42.146Z,14.80
2023-05-14T22:17:08.935Z,14.90
2023-05-14T22:19:35.753Z,15.23
2023-05-14T22:22:02.377Z,15.37
2023-05-14T22:24:28.984Z,15.60
2023-05-14T22:26:55.934Z,15.62
2023-05-14T22:29:22.684Z,15.66
2023-05-14T22:31:49.296Z,15.79
2023-05-14T22:34:16.137Z,15.65
2023-05-14T22:36:42.816Z,15.91
2023-05-14T22:39:11.301Z,16.05
2023-05-14T22:41:39.707Z,16.11
2023-05-14T22:44:06.423Z,16.19
2023-05-14T22:46:33.253Z,16.26
2023-05-14T22:48:59.884Z,16.29
2023-05-14T22:51:26.609Z,16.38
2023-05-14T22:53:54.045Z,16.44
2023-05-14T22:56:20.859Z,16.36
2023-05-14T22:58:47.493Z,16.52
2023-05-14T23:03:55.330Z,16.51
2023-05-14T23:06:22.102Z,16.60
2023-05-14T23:08:48.733Z,16.42
2023-05-14T23:11:15.379Z,16.11
2023-05-14T23:13:42.144Z,15.98
2023-05-14T23:16:08.866Z,16.26
2023-05-14T23:18:35.724Z,16.42
2023-05-14T23:21:02.527Z,16.57
2023-05-14T23:23:29.283Z,16.61
2023-05-14T23:25:56.093Z,16.36
2023-05-14T23:28:22.944Z,16.27
2023-05-14T23:30:49.636Z,16.09
2023-05-14T23:33:16.787Z,15.98
2023-05-14T23:35:44.052Z,16.16
2023-05-14T23:38:10.914Z,16.23
2023-05-14T23:40:37.658Z,16.30
2023-05-14T23:43:04.413Z,16.39
2023-05-14T23:45:31.459Z,16.52
2023-05-14T23:47:59.081Z,16.57
2023-05-14T23:50:25.800Z,16.57
2023-05-14T23:52:53.798Z,16.56
2023-05-14T23:55:20.944Z,16.74
2023-05-14T23:57:49.048Z,16.75
